Time;durP1;ratioP1;P1;durP2;ratioP2;P2;SDS_P1;SDS_P2;PMS_P1;PMS_P2;Temp;Humidity;BMP_temperature;BMP_pressure;BME280_temperature;BME280_humidity;BME280_pressure;Samples;Min_cycle;Max_cycle;Signal;HPM_P1;HPM_P2
2021/07/24 00:01:52;;;;;;;14.70;13.40;;;21.70;94.90;;;;;;5106116;28;20472;-62
2021/07/24 00:04:19;;;;;;;14.70;13.17;;;21.70;94.40;;;;;;5105699;27;21316;-62
2021/07/24 00:06:46;;;;;;;14.67;13.30;;;21.70;94.30;;;;;;5106013;27;20498;-62
2021/07/24 00:09:13;;;;;;;15.40;14.00;;;21.60;94.70;;;;;;5106233;27;20464;-62
2021/07/24 00:11:40;;;;;;;13.57;12.30;;;21.60;94.60;;;;;;5107168;27;20529;-63
2021/07/24 00:14:08;;;;;;;13.20;11.97;;;21.60;94.70;;;;;;5106692;27;20464;-62
2021/07/24 00:16:35;;;;;;;13.60;12.33;;;21.60;94.90;;;;;;5106864;27;20456;-62
2021/07/24 00:19:02;;;;;;;15.17;13.77;;;21.60;95.00;;;;;;5106573;28;20465;-61
2021/07/24 00:21:29;;;;;;;14.40;13.07;;;21.60;95.10;;;;;;5110186;27;20520;-62
2021/07/24 00:23:56;;;;;;;14.80;13.50;;;21.50;95.20;;;;;;5108132;28;20519;-62
2021/07/24 00:26:23;;;;;;;14.00;12.60;;;21.50;95.20;;;;;;5112921;27;20521;-62
2021/07/24 00:28:51;;;;;;;13.33;12.27;;;21.50;95.30;;;;;;5105896;28;20925;-62
2021/07/24 00:31:19;;;;;;;13.03;11.93;;;21.50;95.30;;;;;;5111786;28;20476;-62
2021/07/24 00:33:46;;;;;;;14.20;12.80;;;21.40;95.30;;;;;;5114156;28;20505;-62
2021/07/24 00:36:13;;;;;;;13.00;11.80;;;21.40;95.20;;;;;;5101080;28;20538;-62
2021/07/24 00:38:40;;;;;;;13.23;12.03;;;21.40;95.00;;;;;;5107589;28;20549;-62
2021/07/24 00:41:15;;;;;;;13.60;12.20;;;21.40;95.00;;;;;;5111439;28;20890;-62
2021/07/24 00:43:46;;;;;;;13.00;11.80;;;21.40;94.80;;;;;;5114240;27;20464;-62
2021/07/24 00:46:14;;;;;;;14.90;13.60;;;21.40;94.70;;;;;;5113957;27;20552;-62
2021/07/24 00:48:43;;;;;;;14.10;12.70;;;21.40;94.60;;;;;;5114473;27;21022;-62
2021/07/24 00:51:11;;;;;;;15.07;13.27;;;21.40;94.50;;;;;;5101713;28;20545;-62
2021/07/24 00:53:38;;;;;;;14.80;13.50;;;21.30;94.40;;;;;;5105096;28;20540;-63
2021/07/24 00:56:06;;;;;;;12.33;11.20;;;21.30;94.40;;;;;;5114296;27;20521;-62
2021/07/24 00:58:35;;;;;;;19.00;17.00;;;21.30;94.30;;;;;;5107449;28;20548;-63
2021/07/24 01:01:04;;;;;;;16.77;15.13;;;21.30;94.30;;;;;;5106511;28;20464;-61
2021/07/24 01:03:31;;;;;;;15.63;13.80;;;21.30;94.00;;;;;;5113199;27;20464;-62
2021/07/24 01:06:00;;;;;;;22.47;20.30;;;21.30;93.90;;;;;;5105333;28;20469;-60
2021/07/24 01:08:31;;;;;;;12.37;11.27;;;21.30;93.90;;;;;;5110296;28;20473;-61
2021/07/24 01:10:58;;;;;;;14.07;12.67;;;21.30;93.80;;;;;;5108715;28;20522;-61
2021/07/24 01:13:25;;;;;;;17.87;16.27;;;21.30;93.70;;;;;;5109973;27;20804;-62
2021/07/24 01:18:37;;;;;;;20.63;18.50;;;21.30;93.70;;;;;;5101418;28;20460;-61
2021/07/24 01:21:08;;;;;;;19.50;17.50;;;21.30;93.80;;;;;;5110882;27;20848;-62
2021/07/24 01:23:37;;;;;;;14.60;13.07;;;21.30;93.70;;;;;;5107185;28;20465;-61
2021/07/24 01:26:04;;;;;;;15.77;14.10;;;21.30;93.60;;;;;;5112989;28;20464;-61
2021/07/24 01:28:34;;;;;;;11.07;9.97;;;21.30;93.70;;;;;;5105344;27;20917;-62
2021/07/24 01:31:03;;;;;;;10.60;9.60;;;21.30;93.60;;;;;;5108896;28;20521;-61
2021/07/24 01:33:32;;;;;;;11.70;10.67;;;21.30;93.70;;;;;;5100677;27;20842;-61
2021/07/24 01:35:59;;;;;;;10.70;9.80;;;21.30;93.70;;;;;;5106924;28;20468;-61
2021/07/24 01:38:26;;;;;;;10.37;9.37;;;21.30;93.70;;;;;;5103405;28;20465;-62
2021/07/24 01:40:54;;;;;;;19.97;18.40;;;21.30;93.80;;;;;;5108977;28;20460;-62
2021/07/24 01:43:21;;;;;;;20.07;18.33;;;21.30;93.70;;;;;;5108826;27;20953;-61
2021/07/24 01:45:48;;;;;;;31.60;28.90;;;21.30;93.80;;;;;;5099018;28;20518;-61
2021/07/24 01:48:17;;;;;;;27.00;24.90;;;21.30;93.80;;;;;;5113090;27;20476;-61
2021/07/24 01:53:31;;;;;;;17.33;15.90;;;21.30;93.90;;;;;;5112843;27;20463;-62
2021/07/24 01:56:03;;;;;;;19.90;18.13;;;21.20;94.00;;;;;;5094696;28;20478;-62
2021/07/24 01:58:35;;;;;;;13.80;12.53;;;21.20;94.00;;;;;;5101393;27;20477;-61
2021/07/24 02:01:05;;;;;;;13.90;12.70;;;21.20;94.40;;;;;;5110709;28;20864;-62
2021/07/24 02:03:38;;;;;;;12.03;11.13;;;21.20;94.20;;;;;;5110013;28;20516;-63
2021/07/24 02:06:05;;;;;;;12.23;11.13;;;21.20;94.20;;;;;;5101590;28;20539;-61
2021/07/24 02:08:33;;;;;;;15.77;14.37;;;21.20;94.30;;;;;;5112224;28;20525;-63
2021/07/24 02:11:03;;;;;;;13.60;12.50;;;21.20;94.40;;;;;;5113747;28;21043;-63
2021/07/24 02:13:30;;;;;;;14.23;12.80;;;21.10;94.50;;;;;;5102722;28;20867;-63
2021/07/24 02:15:57;;;;;;;17.90;16.40;;;21.10;94.60;;;;;;5112593;28;20464;-62
2021/07/24 02:18:25;;;;;;;19.80;18.10;;;21.10;94.70;;;;;;5108207;28;20962;-63
2021/07/24 02:20:54;;;;;;;18.60;17.20;;;21.10;94.80;;;;;;5102355;28;20469;-61
2021/07/24 02:23:21;;;;;;;22.93;20.63;;;21.10;94.90;;;;;;5103033;28;20557;-61
2021/07/24 02:25:48;;;;;;;23.60;21.83;;;21.00;95.10;;;;;;5112918;28;20521;-62
2021/07/24 02:28:16;;;;;;;29.07;26.90;;;21.00;95.10;;;;;;5101482;27;20999;-62
2021/07/24 02:30:43;;;;;;;37.10;34.30;;;21.00;95.20;;;;;;5105521;28;20472;-62
2021/07/24 02:33:10;;;;;;;43.93;40.60;;;21.00;95.30;;;;;;5109968;28;20836;-62
2021/07/24 02:35:37;;;;;;;37.73;34.63;;;21.00;95.40;;;;;;5107241;27;20510;-62
2021/07/24 02:38:05;;;;;;;37.07;34.03;;;21.00;95.40;;;;;;5100588;28;20468;-62
2021/07/24 02:40:32;;;;;;;45.13;41.63;;;21.00;95.50;;;;;;5109689;28;20472;-62
2021/07/24 02:42:59;;;;;;;34.73;32.03;;;21.00;95.60;;;;;;5107754;28;20466;-63
2021/07/24 02:45:27;;;;;;;34.03;31.20;;;21.00;95.70;;;;;;5098755;27;20461;-62
2021/07/24 02:47:54;;;;;;;25.83;23.77;;;21.00;96.00;;;;;;5111461;28;20857;-62
2021/07/24 02:50:21;;;;;;;18.47;16.97;;;21.00;95.80;;;;;;5111949;27;20472;-62
2021/07/24 02:52:48;;;;;;;17.00;15.50;;;20.90;95.90;;;;;;5104786;28;20464;-62
2021/07/24 02:55:16;;;;;;;18.03;16.50;;;20.90;96.10;;;;;;5105488;28;20498;-61
2021/07/24 02:57:43;;;;;;;16.07;14.47;;;20.90;96.20;;;;;;5108323;28;20806;-62
2021/07/24 03:00:11;;;;;;;14.77;13.47;;;20.90;96.30;;;;;;5106244;28;20476;-62
2021/07/24 03:02:39;;;;;;;13.23;12.07;;;20.90;96.30;;;;;;5102224;27;20473;-62
2021/07/24 03:05:07;;;;;;;13.63;12.43;;;20.90;96.50;;;;;;5102958;28;20464;-62
2021/07/24 03:07:34;;;;;;;14.13;12.20;;;20.90;96.50;;;;;;5104576;28;20537;-60
2021/07/24 03:10:00;;;;;;;13.87;12.37;;;20.90;96.60;;;;;;5099969;28;20465;-62
2021/07/24 03:12:27;;;;;;;13.87;11.70;;;20.90;96.70;;;;;;5105293;28;20465;-62
2021/07/24 03:14:54;;;;;;;14.83;13.37;;;20.90;96.80;;;;;;5103262;28;20472;-62
2021/07/24 03:17:22;;;;;;;14.17;12.93;;;20.90;96.80;;;;;;5106949;27;20873;-61
2021/07/24 03:19:50;;;;;;;16.90;15.30;;;20.90;97.00;;;;;;5098034;28;20537;-62
2021/07/24 03:22:17;;;;;;;16.10;14.60;;;20.90;97.00;;;;;;5108757;28;20464;-62
2021/07/24 03:24:44;;;;;;;15.60;13.43;;;20.90;97.10;;;;;;5112221;28;20476;-62
2021/07/24 03:27:11;;;;;;;14.77;13.40;;;20.90;97.20;;;;;;5106394;28;21008;-62
2021/07/24 03:29:38;;;;;;;15.93;14.33;;;20.90;97.20;;;;;;5102378;28;20551;-62
2021/07/24 03:32:05;;;;;;;15.63;14.23;;;20.90;97.40;;;;;;5111825;28;20464;-62
2021/07/24 03:34:32;;;;;;;15.83;14.23;;;20.90;97.50;;;;;;5112004;28;20461;-62
2021/07/24 03:37:00;;;;;;;15.20;13.70;;;21.00;97.50;;;;;;5103907;27;20975;-63
2021/07/24 03:39:27;;;;;;;15.57;14.10;;;20.90;97.60;;;;;;5105063;27;20554;-62
2021/07/24 03:41:54;;;;;;;15.40;14.00;;;20.90;97.70;;;;;;5107840;28;20464;-61
2021/07/24 03:44:21;;;;;;;15.93;14.30;;;20.90;97.80;;;;;;5099812;28;20800;-62
2021/07/24 03:46:48;;;;;;;16.33;13.87;;;20.90;97.80;;;;;;5108272;28;20987;-62
2021/07/24 03:49:15;;;;;;;13.63;12.30;;;21.00;97.80;;;;;;5111995;27;20540;-62
2021/07/24 03:51:42;;;;;;;14.10;12.80;;;21.00;97.80;;;;;;5105132;27;20947;-63
2021/07/24 03:54:10;;;;;;;14.93;13.43;;;21.00;97.80;;;;;;5103683;28;20533;-62
2021/07/24 03:56:37;;;;;;;15.67;14.27;;;21.00;97.70;;;;;;5102960;28;20491;-62
2021/07/24 03:59:04;;;;;;;16.77;15.07;;;21.10;97.80;;;;;;5107323;28;20471;-62
2021/07/24 04:01:31;;;;;;;16.37;14.83;;;21.10;97.80;;;;;;5109779;28;20456;-62
2021/07/24 04:03:58;;;;;;;15.57;14.03;;;21.10;97.80;;;;;;5110717;28;20468;-62
2021/07/24 04:06:27;;;;;;;16.30;14.60;;;21.10;97.80;;;;;;5111075;28;21019;-61
2021/07/24 04:08:57;;;;;;;16.67;14.93;;;21.10;97.80;;;;;;5112453;28;20525;-61
2021/07/24 04:11:26;;;;;;;14.07;12.77;;;21.10;97.80;;;;;;5114693;28;20958;-61
2021/07/24 04:13:53;;;;;;;15.60;14.07;;;21.10;97.80;;;;;;5114454;28;20861;-61
2021/07/24 04:16:20;;;;;;;15.37;13.83;;;21.10;97.70;;;;;;5114564;28;20526;-61
2021/07/24 04:18:48;;;;;;;15.10;13.67;;;21.20;97.80;;;;;;5115674;27;20525;-62
2021/07/24 04:21:15;;;;;;;16.53;15.03;;;21.20;97.90;;;;;;5116116;28;20859;-62
2021/07/24 04:23:41;;;;;;;17.60;15.83;;;21.20;97.90;;;;;;5115477;27;20468;-61
2021/07/24 04:26:08;;;;;;;15.00;13.40;;;21.20;97.80;;;;;;5115776;28;20468;-62
2021/07/24 04:28:37;;;;;;;14.70;13.40;;;21.30;97.90;;;;;;5115361;28;20472;-61
2021/07/24 04:31:04;;;;;;;13.20;11.97;;;21.30;98.00;;;;;;5115784;28;20464;-62
2021/07/24 04:33:32;;;;;;;13.70;12.33;;;21.30;97.90;;;;;;5115634;28;20810;-62
2021/07/24 04:35:58;;;;;;;13.77;12.67;;;21.40;97.90;;;;;;5115438;28;20521;-62
2021/07/24 04:38:25;;;;;;;13.70;12.40;;;21.40;98.00;;;;;;5115471;27;20464;-62
2021/07/24 04:40:52;;;;;;;13.73;12.60;;;21.40;98.00;;;;;;5115299;28;20517;-62
2021/07/24 04:43:19;;;;;;;14.73;13.33;;;21.50;98.10;;;;;;5115633;28;20465;-63
2021/07/24 04:45:47;;;;;;;14.17;12.73;;;21.50;98.00;;;;;;5115111;28;20456;-62
2021/07/24 04:48:14;;;;;;;16.73;14.37;;;21.60;97.90;;;;;;5115373;27;20485;-62
2021/07/24 04:50:44;;;;;;;16.13;14.53;;;21.60;97.10;;;;;;5115083;27;20542;-62
2021/07/24 04:53:13;;;;;;;17.63;15.73;;;21.60;96.90;;;;;;5115334;27;20529;-62
2021/07/24 04:55:40;;;;;;;15.73;14.27;;;21.60;96.60;;;;;;5114762;27;20529;-63
2021/07/24 04:58:09;;;;;;;16.77;15.17;;;21.70;96.60;;;;;;5115266;28;20989;-62
2021/07/24 05:00:38;;;;;;;15.43;13.67;;;21.70;96.50;;;;;;5115052;27;20479;-62
2021/07/24 05:03:06;;;;;;;15.77;14.30;;;21.80;96.40;;;;;;5115459;27;20476;-62
2021/07/24 05:05:36;;;;;;;14.87;13.47;;;21.90;96.40;;;;;;5115071;27;20525;-62
2021/07/24 05:08:04;;;;;;;16.13;14.30;;;21.90;96.30;;;;;;5114497;28;21276;-63
2021/07/24 05:10:31;;;;;;;15.77;14.27;;;21.90;96.00;;;;;;5115222;28;20480;-62
2021/07/24 05:12:58;;;;;;;14.30;12.97;;;22.00;95.80;;;;;;5114674;27;20942;-62
2021/07/24 05:15:25;;;;;;;14.07;12.77;;;22.10;95.80;;;;;;5114919;27;20589;-62
2021/07/24 05:17:52;;;;;;;15.27;13.70;;;22.20;95.90;;;;;;5114501;27;20546;-62
2021/07/24 05:20:20;;;;;;;15.60;14.03;;;22.20;95.40;;;;;;5114678;28;20787;-62
2021/07/24 05:22:47;;;;;;;14.30;12.90;;;22.20;95.40;;;;;;5114274;28;20521;-62
2021/07/24 05:25:14;;;;;;;14.17;12.83;;;22.30;95.20;;;;;;5114741;27;20970;-62
2021/07/24 05:27:41;;;;;;;13.77;12.47;;;22.30;95.10;;;;;;5114162;28;20468;-62
2021/07/24 05:30:09;;;;;;;14.43;13.13;;;22.40;95.00;;;;;;5114760;27;20472;-63
2021/07/24 05:32:36;;;;;;;13.03;11.83;;;22.40;95.00;;;;;;5114843;28;20476;-62
2021/07/24 05:35:04;;;;;;;14.33;13.03;;;22.50;94.90;;;;;;5114073;27;20526;-62
2021/07/24 05:37:32;;;;;;;14.10;12.80;;;22.60;94.80;;;;;;5114465;28;20468;-62
2021/07/24 05:39:59;;;;;;;13.70;12.40;;;22.60;94.80;;;;;;5114110;28;20468;-62
2021/07/24 05:42:26;;;;;;;14.70;13.40;;;22.70;95.10;;;;;;5114456;28;20465;-60
2021/07/24 05:44:52;;;;;;;13.60;12.33;;;22.80;95.20;;;;;;5114028;27;20825;-60
2021/07/24 05:47:19;;;;;;;14.00;12.60;;;22.80;95.40;;;;;;5114222;28;20465;-62
2021/07/24 05:49:46;;;;;;;13.67;12.40;;;22.90;94.90;;;;;;5113778;28;21027;-62
2021/07/24 05:52:13;;;;;;;15.00;13.53;;;23.00;94.70;;;;;;5114306;28;20472;-62
2021/07/24 05:54:41;;;;;;;18.10;14.60;;;23.00;94.80;;;;;;5114002;28;20476;-62
2021/07/24 05:57:09;;;;;;;14.50;13.10;;;23.10;94.50;;;;;;5113740;28;20456;-62
2021/07/24 05:59:36;;;;;;;14.83;13.33;;;23.20;94.80;;;;;;5114247;28;20469;-62
2021/07/24 06:02:05;;;;;;;18.20;13.57;;;23.20;94.20;;;;;;5113704;27;20529;-62
2021/07/24 06:04:32;;;;;;;17.10;12.93;;;23.20;93.50;;;;;;5113896;28;20486;-62
2021/07/24 06:06:59;;;;;;;13.90;12.60;;;23.30;93.60;;;;;;5113594;27;20464;-62
2021/07/24 06:09:26;;;;;;;14.70;13.20;;;23.30;93.50;;;;;;5113982;28;20828;-62
2021/07/24 06:11:55;;;;;;;15.07;13.53;;;23.40;93.50;;;;;;5113361;28;20472;-63
2021/07/24 06:14:22;;;;;;;13.47;12.07;;;23.40;93.30;;;;;;5113830;28;20469;-62
2021/07/24 06:16:49;;;;;;;15.17;13.07;;;23.50;93.40;;;;;;5113342;28;20556;-63
2021/07/24 06:19:16;;;;;;;14.20;12.73;;;23.50;93.10;;;;;;5113745;27;20476;-62
2021/07/24 06:21:43;;;;;;;15.83;14.43;;;23.60;93.30;;;;;;5113758;28;20464;-61
2021/07/24 06:24:10;;;;;;;15.80;14.30;;;23.80;93.90;;;;;;5113383;28;20457;-62
2021/07/24 06:26:37;;;;;;;14.40;13.10;;;23.90;93.60;;;;;;5113661;28;20468;-63
2021/07/24 06:29:06;;;;;;;13.70;12.40;;;23.90;92.80;;;;;;5113131;28;20543;-62
2021/07/24 06:31:33;;;;;;;14.33;12.93;;;24.00;92.70;;;;;;5113099;28;20537;-62
2021/07/24 06:34:02;;;;;;;16.27;14.87;;;24.20;92.50;;;;;;5113308;28;20533;-63
2021/07/24 06:36:29;;;;;;;14.37;12.90;;;24.20;92.00;;;;;;5113557;28;20521;-63
2021/07/24 06:38:57;;;;;;;14.40;13.00;;;24.30;92.00;;;;;;5113057;28;20849;-63
2021/07/24 06:41:26;;;;;;;14.43;13.03;;;24.50;92.60;;;;;;5113565;28;20472;-62
2021/07/24 06:43:53;;;;;;;19.27;17.50;;;24.60;92.20;;;;;;5113018;28;20895;-62
2021/07/24 06:46:22;;;;;;;14.93;13.50;;;24.80;92.30;;;;;;5113399;28;20469;-62
2021/07/24 06:48:49;;;;;;;13.67;12.47;;;24.90;91.50;;;;;;5113069;28;20518;-61
2021/07/24 06:51:16;;;;;;;14.13;12.83;;;25.00;91.20;;;;;;5113136;28;20521;-63
2021/07/24 06:53:43;;;;;;;15.73;14.10;;;25.20;90.90;;;;;;5113241;28;20456;-62
2021/07/24 06:56:10;;;;;;;13.93;12.53;;;25.30;90.80;;;;;;5112870;28;20452;-62
2021/07/24 06:58:36;;;;;;;15.40;13.80;;;25.50;90.60;;;;;;5113032;28;20494;-62
2021/07/24 07:01:06;;;;;;;14.50;13.00;;;25.70;90.30;;;;;;5112662;28;20962;-62
2021/07/24 07:03:34;;;;;;;14.80;13.40;;;25.90;89.60;;;;;;5113253;28;20852;-61
2021/07/24 07:06:01;;;;;;;14.13;12.83;;;26.00;89.10;;;;;;5112537;28;20982;-61
2021/07/24 07:08:28;;;;;;;14.13;12.73;;;26.20;88.70;;;;;;5113110;28;20990;-62
2021/07/24 07:10:55;;;;;;;18.77;15.97;;;26.40;88.40;;;;;;5112770;28;20529;-62
2021/07/24 07:13:21;;;;;;;17.43;15.73;;;26.60;88.20;;;;;;5113031;28;20529;-62
2021/07/24 07:15:48;;;;;;;15.17;12.67;;;26.70;87.70;;;;;;5113085;28;20460;-61
2021/07/24 07:18:15;;;;;;;15.00;13.63;;;26.80;86.70;;;;;;5112727;28;20464;-62
2021/07/24 07:20:47;;;;;;;14.67;13.07;;;26.90;85.80;;;;;;5112986;28;20600;-62
2021/07/24 07:23:14;;;;;;;15.47;13.97;;;27.00;85.20;;;;;;5112433;28;20987;-60
2021/07/24 07:25:41;;;;;;;13.57;12.27;;;27.10;85.30;;;;;;5113060;28;20504;-62
2021/07/24 07:28:09;;;;;;;17.30;13.07;;;27.20;86.00;;;;;;5112349;28;20533;-62
2021/07/24 07:30:35;;;;;;;13.97;12.50;;;27.20;84.60;;;;;;5112773;28;20460;-62
2021/07/24 07:33:02;;;;;;;13.33;12.10;;;27.30;85.80;;;;;;5112500;28;20464;-62
2021/07/24 07:35:29;;;;;;;13.77;12.37;;;27.40;86.00;;;;;;5112885;28;21332;-62
2021/07/24 07:37:59;;;;;;;13.17;12.07;;;27.40;84.80;;;;;;5112250;28;20533;-62
2021/07/24 07:40:26;;;;;;;15.60;14.30;;;27.60;86.00;;;;;;5113013;28;20492;-63
2021/07/24 07:42:53;;;;;;;14.60;13.40;;;27.70;87.30;;;;;;5112508;28;20465;-62
2021/07/24 07:45:20;;;;;;;15.50;14.10;;;27.80;87.70;;;;;;5116654;28;20533;-62
2021/07/24 07:47:47;;;;;;;15.10;13.60;;;27.90;85.50;;;;;;5116802;28;20472;-62
2021/07/24 07:50:14;;;;;;;14.40;13.10;;;27.90;81.70;;;;;;5116093;28;20844;-61
2021/07/24 07:52:41;;;;;;;14.50;13.27;;;27.90;81.10;;;;;;5116663;28;20464;-61
2021/07/24 07:55:10;;;;;;;14.73;13.43;;;28.00;81.90;;;;;;5115884;28;20502;-62
2021/07/24 07:57:39;;;;;;;14.43;13.13;;;28.10;80.80;;;;;;5116527;28;20537;-62
2021/07/24 08:00:08;;;;;;;14.67;13.30;;;28.20;80.10;;;;;;5116049;28;20539;-62
2021/07/24 08:02:35;;;;;;;14.30;13.00;;;28.30;81.40;;;;;;5116587;28;20969;-62
2021/07/24 08:05:01;;;;;;;14.90;13.50;;;28.30;79.00;;;;;;5115948;27;20533;-62
2021/07/24 08:07:28;;;;;;;14.90;13.53;;;28.40;81.00;;;;;;5116176;28;20517;-62
2021/07/24 08:09:56;;;;;;;14.87;13.47;;;28.50;81.30;;;;;;5115969;28;20459;-63
2021/07/24 08:12:25;;;;;;;14.77;13.43;;;28.50;78.60;;;;;;5116155;28;20480;-62
2021/07/24 08:14:52;;;;;;;13.73;12.63;;;28.60;78.90;;;;;;5116256;28;20543;-61
2021/07/24 08:17:21;;;;;;;16.70;15.13;;;28.60;76.80;;;;;;5115710;28;20456;-62
2021/07/24 08:19:48;;;;;;;14.20;12.90;;;28.60;76.80;;;;;;5116033;28;20464;-61
2021/07/24 08:22:15;;;;;;;14.10;12.77;;;28.60;76.80;;;;;;5115731;27;20568;-62
2021/07/24 08:24:42;;;;;;;14.63;13.23;;;28.70;75.90;;;;;;5116134;27;20547;-62
2021/07/24 08:27:08;;;;;;;15.07;13.57;;;28.70;75.20;;;;;;5115368;28;20985;-63
2021/07/24 08:29:37;;;;;;;14.47;13.17;;;28.70;75.20;;;;;;5115996;28;20472;-62
2021/07/24 08:32:04;;;;;;;15.20;12.70;;;28.70;74.50;;;;;;5115384;28;20523;-62
2021/07/24 08:34:31;;;;;;;14.33;12.93;;;28.80;74.30;;;;;;5115852;28;20460;-63
2021/07/24 08:36:58;;;;;;;15.93;14.50;;;28.70;73.90;;;;;;5115570;28;20848;-61
2021/07/24 08:39:25;;;;;;;13.63;12.43;;;28.80;75.10;;;;;;5115590;27;20480;-62
2021/07/24 08:41:52;;;;;;;14.67;12.77;;;28.80;74.00;;;;;;5115684;27;20476;-63
2021/07/24 08:44:18;;;;;;;14.60;13.20;;;28.80;74.10;;;;;;5115369;28;20490;-62
2021/07/24 08:46:47;;;;;;;14.67;13.27;;;28.80;73.30;;;;;;5115400;28;20514;-62
2021/07/24 08:49:14;;;;;;;14.27;12.97;;;28.80;72.80;;;;;;5114997;28;20472;-61
2021/07/24 08:51:43;;;;;;;14.50;12.97;;;28.80;71.50;;;;;;5115588;28;20469;-62
2021/07/24 08:54:11;;;;;;;14.73;13.37;;;28.90;71.10;;;;;;5114164;27;20481;-62
2021/07/24 08:56:45;;;;;;;13.37;11.97;;;28.80;70.90;;;;;;5115683;27;20540;-62
2021/07/24 08:59:13;;;;;;;13.93;12.67;;;28.80;70.50;;;;;;5114899;28;20472;-62
2021/07/24 09:01:42;;;;;;;14.80;13.37;;;28.80;70.70;;;;;;5115437;28;20543;-62
2021/07/24 09:04:10;;;;;;;13.40;11.60;;;28.80;70.80;;;;;;5114801;28;20472;-62
2021/07/24 09:06:39;;;;;;;13.27;12.07;;;28.70;70.90;;;;;;5115175;28;20533;-62
2021/07/24 09:09:06;;;;;;;13.33;12.20;;;28.60;70.40;;;;;;5114543;28;20464;-63
2021/07/24 09:11:33;;;;;;;14.30;12.90;;;28.60;70.80;;;;;;5115057;27;20504;-62
2021/07/24 09:14:01;;;;;;;14.20;12.90;;;28.60;70.90;;;;;;5114805;27;20517;-61
2021/07/24 09:16:28;;;;;;;14.50;13.20;;;28.60;71.10;;;;;;5115050;28;20472;-62
2021/07/24 09:19:00;;;;;;;13.77;12.53;;;28.60;70.90;;;;;;5114829;27;20541;-62
2021/07/24 09:21:30;;;;;;;13.63;12.30;;;28.60;69.90;;;;;;5114608;28;20452;-62
2021/07/24 09:24:21;;;;;;;14.77;13.47;;;28.60;71.00;;;;;;5114496;28;20525;-62
2021/07/24 09:26:48;;;;;;;13.73;12.33;;;28.60;70.80;;;;;;5114646;28;20845;-62
2021/07/24 09:29:16;;;;;;;13.07;11.77;;;28.60;70.20;;;;;;5114446;28;20469;-62
2021/07/24 09:31:44;;;;;;;14.00;12.70;;;28.70;70.00;;;;;;5114966;28;21138;-62
2021/07/24 09:34:16;;;;;;;13.60;12.30;;;28.70;69.90;;;;;;5114394;28;20606;-62
2021/07/24 09:36:46;;;;;;;13.63;12.40;;;28.70;69.20;;;;;;5114470;28;21031;-62
2021/07/24 09:39:20;;;;;;;14.23;12.97;;;28.70;69.30;;;;;;5114298;28;20915;-62
2021/07/24 09:41:49;;;;;;;14.07;12.77;;;28.70;69.20;;;;;;5114629;27;20965;-64
2021/07/24 09:44:37;;;;;;;13.47;12.23;;;28.70;69.20;;;;;;5114188;28;20828;-62
2021/07/24 09:47:05;;;;;;;13.50;12.30;;;28.70;67.70;;;;;;5113709;28;21046;-62
2021/07/24 09:49:47;;;;;;;12.60;11.50;;;28.60;67.30;;;;;;5114314;28;20471;-62
2021/07/24 09:52:16;;;;;;;13.23;12.23;;;28.60;68.00;;;;;;5113703;27;20460;-61
2021/07/24 09:54:49;;;;;;;12.93;11.93;;;28.60;68.00;;;;;;5114257;28;20468;-62
2021/07/24 09:57:49;;;;;;;14.90;13.40;;;28.70;67.40;;;;;;5113719;27;20475;-62
2021/07/24 10:03:20;;;;;;;13.83;12.40;;;28.60;68.30;;;;;;5110819;28;21009;-62
2021/07/24 10:06:14;;;;;;;12.20;11.07;;;28.70;67.00;;;;;;5113316;27;20551;-62
2021/07/24 10:08:56;;;;;;;13.00;11.90;;;28.70;66.50;;;;;;5113708;28;20910;-63
2021/07/24 10:11:22;;;;;;;13.40;12.20;;;28.70;66.60;;;;;;5113818;28;20468;-62
2021/07/24 10:13:51;;;;;;;13.90;12.60;;;28.80;65.00;;;;;;5113261;28;21212;-63
2021/07/24 10:16:27;;;;;;;12.93;11.63;;;28.80;65.00;;;;;;5113742;27;20942;-62
2021/07/24 10:18:54;;;;;;;13.37;12.17;;;28.80;65.60;;;;;;5113318;28;20544;-62
2021/07/24 10:21:31;;;;;;;12.60;11.50;;;28.80;64.80;;;;;;5113530;28;20518;-63
2021/07/24 10:23:59;;;;;;;13.10;11.90;;;28.80;65.20;;;;;;5113246;28;20463;-62
2021/07/24 10:26:30;;;;;;;12.57;11.40;;;28.80;65.30;;;;;;5113640;28;20464;-62
2021/07/24 10:29:16;;;;;;;13.07;11.60;;;28.80;64.90;;;;;;5113388;28;20463;-62
2021/07/24 10:31:49;;;;;;;12.47;11.23;;;28.90;65.20;;;;;;5113182;28;20472;-61
2021/07/24 10:34:32;;;;;;;12.30;11.20;;;29.00;65.60;;;;;;5113543;28;20541;-61
2021/07/24 10:36:59;;;;;;;13.70;12.30;;;29.00;64.40;;;;;;5112948;28;20460;-61
2021/07/24 10:39:39;;;;;;;13.10;11.90;;;29.00;63.40;;;;;;5113198;28;20958;-61
2021/07/24 10:42:18;;;;;;;12.60;11.57;;;29.00;63.60;;;;;;5113252;28;20780;-61
2021/07/24 10:44:46;;;;;;;12.67;11.40;;;29.10;64.00;;;;;;5113159;27;20460;-61
2021/07/24 10:47:18;;;;;;;12.50;11.30;;;29.20;64.50;;;;;;5113034;28;20503;-61
2021/07/24 10:50:04;;;;;;;12.43;11.23;;;29.20;64.00;;;;;;5112645;28;20547;-62
2021/07/24 10:53:09;;;;;;;12.40;11.37;;;29.30;63.90;;;;;;5113040;28;20468;-61
2021/07/24 10:55:48;;;;;;;13.90;12.60;;;29.30;63.90;;;;;;5112879;28;20483;-62
2021/07/24 17:46:22;;;;;;;12.90;11.80;;;29.20;63.10;;;;;;5114092;28;20525;-61
2021/07/24 17:48:50;;;;;;;13.47;12.27;;;29.10;63.30;;;;;;5113906;27;20860;-61
2021/07/24 17:51:22;;;;;;;12.50;11.33;;;29.10;63.40;;;;;;5114458;28;20469;-61
2021/07/24 17:53:49;;;;;;;12.53;11.53;;;29.10;63.60;;;;;;5113835;27;20570;-61
2021/07/24 17:56:19;;;;;;;12.53;11.50;;;29.00;63.60;;;;;;5114405;28;20514;-62
2021/07/24 17:58:46;;;;;;;13.37;11.83;;;29.00;63.70;;;;;;5113744;28;20547;-61
2021/07/24 18:01:13;;;;;;;12.43;11.23;;;28.90;63.60;;;;;;5114219;28;20999;-62
2021/07/24 18:03:40;;;;;;;12.17;10.90;;;28.90;63.80;;;;;;5114033;28;21095;-61
2021/07/24 18:06:09;;;;;;;13.30;12.10;;;28.90;64.00;;;;;;5114170;27;20472;-60
2021/07/24 18:08:38;;;;;;;12.10;10.97;;;28.90;64.20;;;;;;5113330;28;20958;-61
2021/07/24 18:11:05;;;;;;;12.60;11.40;;;28.90;64.30;;;;;;5114012;28;20461;-61
2021/07/24 18:13:32;;;;;;;13.50;11.93;;;28.80;64.10;;;;;;5113575;28;20965;-61
2021/07/24 18:16:00;;;;;;;11.83;10.73;;;28.80;64.30;;;;;;5113718;28;20522;-61
2021/07/24 18:18:27;;;;;;;12.30;10.97;;;28.80;64.40;;;;;;5113778;27;20469;-61
2021/07/24 18:20:54;;;;;;;12.70;11.40;;;28.80;64.20;;;;;;5113520;28;20926;-61
2021/07/24 18:23:22;;;;;;;12.07;11.03;;;28.80;64.30;;;;;;5113468;27;20460;-61
2021/07/24 18:25:49;;;;;;;17.00;11.37;;;28.80;64.30;;;;;;5113342;28;20469;-61
2021/07/24 18:28:16;;;;;;;13.83;12.53;;;28.80;64.50;;;;;;5112831;27;20672;-61
2021/07/24 18:30:43;;;;;;;12.43;11.40;;;28.70;64.40;;;;;;5113178;28;20595;-61
2021/07/24 18:33:10;;;;;;;14.10;12.80;;;28.70;64.60;;;;;;5113672;28;20469;-61
2021/07/24 18:35:37;;;;;;;12.40;11.40;;;28.70;64.80;;;;;;5112954;28;20603;-61
2021/07/24 18:38:04;;;;;;;12.57;11.57;;;28.60;64.70;;;;;;5113491;27;21027;-61
2021/07/24 18:40:33;;;;;;;12.80;11.67;;;28.60;64.90;;;;;;5113603;28;20465;-62
2021/07/24 18:42:59;;;;;;;13.43;12.00;;;28.60;65.10;;;;;;5113181;28;20536;-61
2021/07/24 18:45:26;;;;;;;12.87;11.67;;;28.60;65.20;;;;;;5113125;28;20480;-61
2021/07/24 18:47:53;;;;;;;12.60;11.40;;;28.60;65.30;;;;;;5112881;28;21039;-60
2021/07/24 18:50:20;;;;;;;12.60;11.50;;;28.50;65.30;;;;;;5113246;28;20585;-60
2021/07/24 18:52:47;;;;;;;12.90;11.60;;;28.50;65.30;;;;;;5112731;28;20473;-60
2021/07/24 18:55:15;;;;;;;11.97;10.97;;;28.50;65.50;;;;;;5112949;28;21038;-60
2021/07/24 18:57:43;;;;;;;12.13;10.87;;;28.50;65.70;;;;;;5112508;28;20481;-61
2021/07/24 19:00:10;;;;;;;13.27;11.93;;;28.50;65.70;;;;;;5113065;28;20472;-60
2021/07/24 19:02:37;;;;;;;11.97;10.93;;;28.40;65.60;;;;;;5112726;28;20464;-61
2021/07/24 19:05:06;;;;;;;12.97;11.63;;;28.40;66.00;;;;;;5113233;28;20549;-61
2021/07/24 19:07:33;;;;;;;12.43;11.30;;;28.40;65.60;;;;;;5112879;28;20541;-61
2021/07/24 19:10:00;;;;;;;12.83;11.80;;;28.30;65.40;;;;;;5112653;28;20539;-61
2021/07/24 19:12:27;;;;;;;14.07;12.67;;;28.30;65.80;;;;;;5113073;28;20855;-61
2021/07/24 19:14:55;;;;;;;15.23;13.93;;;28.20;65.70;;;;;;5112849;28;20537;-60
2021/07/24 19:17:22;;;;;;;13.37;12.20;;;28.20;66.00;;;;;;5112791;28;21001;-61
2021/07/24 19:19:49;;;;;;;12.57;11.57;;;28.10;66.00;;;;;;5112578;28;20465;-61
2021/07/24 19:22:16;;;;;;;12.53;11.33;;;28.10;66.00;;;;;;5112896;28;20464;-60
2021/07/24 19:24:44;;;;;;;12.30;11.13;;;28.10;66.00;;;;;;5112502;28;20480;-60
2021/07/24 19:27:11;;;;;;;13.60;12.17;;;28.10;66.00;;;;;;5112668;28;20482;-61
2021/07/24 19:29:38;;;;;;;12.27;11.17;;;28.00;66.30;;;;;;5112506;28;20503;-59
2021/07/24 19:32:07;;;;;;;12.77;11.57;;;28.00;66.30;;;;;;5112919;28;20533;-60